Islas Dos — H9HI — position and weather

sailwx.info

Track history (hours):
 
Tides and Currents Weather Stations Pressure Air Temp Water Temp Dewpoint Dewpoint Depression Visibility Wind Speed Wind Dir Waves Ship Positions

Islas Dos

Last reported at 2017-Nov-20 00:19 UTC. Time now 2017-Nov-21 17:27 UTC.
Position N 39°33' W 010°23'.

Length 108 m; draft 4.6 m.

Type: Cargo ship. MMSI: 351774000.

Date/timePositionNaut miles runAvg speedWind from/ knotsBaromVisibWave heightAir tempDewpointWater temp
2017-Nov-20 00:19N 39°33' W 010°23'412.9
2017-Nov-20 00:00N 39°30' W 010°24'612.9
2017-Nov-19 23:30N 39°23' W 010°26'713.2
2017-Nov-19 23:00N 39°17' W 010°28'612.3
2017-Nov-19 22:30N 39°11' W 010°30'612.4
2017-Nov-19 22:00N 39°05' W 010°32'612.8
2017-Nov-19 21:30N 38°59' W 010°34'712.6
2017-Nov-19 20:59N 38°52' W 010°36'712.4
2017-Nov-19 20:27N 38°46' W 010°37'612.6
2017-Nov-19 19:59N 38°40' W 010°39'612.4
2017-Nov-19 19:30N 38°34' W 010°40'612.5
2017-Nov-19 19:00N 38°28' W 010°42'712.9
2017-Nov-19 18:30N 38°22' W 010°44'612.9
2017-Nov-19 18:00N 38°15' W 010°46'712.9
2017-Nov-19 17:30N 38°09' W 010°48'612.6
2017-Nov-19 17:00N 38°03' W 010°50'612.5
2017-Nov-19 16:30N 37°57' W 010°52'612.3
2017-Nov-19 16:00N 37°51' W 010°53'612.4
2017-Nov-19 15:30N 37°45' W 010°55'612.9
2017-Nov-19 15:00N 37°39' W 010°57'612.7
2017-Nov-19 14:30N 37°32' W 010°59'612.2
2017-Nov-19 14:00N 37°26' W 011°00'1112.4
2017-Nov-19 13:07N 37°16' W 011°04'  
2017-Nov-16 13:09N 28°58' W 013°32'0 0.0
2017-Nov-16 12:51N 28°58' W 013°32'0 0.0
2017-Nov-16 12:24N 28°58' W 013°32'0 0.0
2017-Nov-16 11:24N 28°58' W 013°32'0 0.0
2017-Nov-16 10:54N 28°58' W 013°32'0 0.2
2017-Nov-16 10:19N 28°58' W 013°32'1 1.2
2017-Nov-16 09:05N 28°57' W 013°31'1 1.8
2017-Nov-16 08:44N 28°57' W 013°32'310.2
2017-Nov-16 08:28N 28°55' W 013°34'813.1
2017-Nov-16 07:51N 28°49' W 013°40'4512.8
2017-Nov-16 04:19N 28°47' W 014°31'1112.5
2017-Nov-16 03:25N 28°47' W 014°44'612.3
2017-Nov-16 02:57N 28°47' W 014°51'612.3
2017-Nov-16 02:29N 28°46' W 014°57'612.5
2017-Nov-16 01:59N 28°46' W 015°04'612.7
2017-Nov-16 01:30N 28°46' W 015°11'612.7
2017-Nov-16 01:00N 28°46' W 015°18'612.7
2017-Nov-16 00:30N 28°45' W 015°26'612.6
2017-Nov-16 00:00N 28°45' W 015°33'612.7
2017-Nov-15 23:30N 28°45' W 015°40'712.8
2017-Nov-15 22:59N 28°44' W 015°48'  
2017-Nov-10 23:14N 27°43' W 015°18'313.3
2017-Nov-10 23:00N 27°44' W 015°14'713.0
2017-Nov-10 22:30N 27°46' W 015°07'712.7
2017-Nov-10 21:59N 27°47' W 014°60'612.8
2017-Nov-10 21:31N 27°49' W 014°54'712.3
2017-Nov-10 20:56N 27°52' W 014°46'512.3
2017-Nov-10 20:30N 27°54' W 014°41'612.6
2017-Nov-10 19:59N 27°56' W 014°34'612.3
2017-Nov-10 19:29N 27°59' W 014°27'612.8
2017-Nov-10 19:00N 28°01' W 014°21'1113.1
2017-Nov-10 18:08N 28°06' W 014°09'412.8
2017-Nov-10 17:50N 28°07' W 014°05'412.9
2017-Nov-10 17:30N 28°09' W 014°01'812.8
2017-Nov-10 16:51N 28°14' W 013°53'1113.5
2017-Nov-10 16:05N 28°24' W 013°49'413.2
2017-Nov-10 15:45N 28°28' W 013°47'613.0
2017-Nov-10 15:17N 28°33' W 013°44'513.0
2017-Nov-10 14:54N 28°38' W 013°42'513.1
2017-Nov-10 14:30N 28°42' W 013°39'713.4
2017-Nov-10 13:59N 28°49' W 013°36'613.2
2017-Nov-10 13:30N 28°55' W 013°33'4 4.8
2017-Nov-10 12:43N 28°58' W 013°32'0 0.0
2017-Nov-10 12:30N 28°58' W 013°32'0 0.0
2017-Nov-10 11:27N 28°58' W 013°32'0 0.0
2017-Nov-10 03:39N 28°58' W 013°32'  
Track history (hours):
 
Tides and Currents Weather Stations Pressure Air Temp Water Temp Dewpoint Dewpoint Depression Visibility Wind Speed Wind Dir Waves Ship Positions

Islas Dos

Last reported at 2017-Nov-20 00:19 UTC. Time now 2017-Nov-21 17:27 UTC.
Position N 39°33' W 010°23'.

Length 108 m; draft 4.6 m.

Type: Cargo ship. MMSI: 351774000.

Date/timePositionNaut miles runAvg speedWind from/ knotsBaromVisibWave heightAir tempDewpointWater temp
2017-Nov-20 00:19N 39°33' W 010°23'412.9
2017-Nov-20 00:00N 39°30' W 010°24'612.9
2017-Nov-19 23:30N 39°23' W 010°26'713.2
2017-Nov-19 23:00N 39°17' W 010°28'612.3
2017-Nov-19 22:30N 39°11' W 010°30'612.4
2017-Nov-19 22:00N 39°05' W 010°32'612.8
2017-Nov-19 21:30N 38°59' W 010°34'712.6
2017-Nov-19 20:59N 38°52' W 010°36'712.4
2017-Nov-19 20:27N 38°46' W 010°37'612.6
2017-Nov-19 19:59N 38°40' W 010°39'612.4
2017-Nov-19 19:30N 38°34' W 010°40'612.5
2017-Nov-19 19:00N 38°28' W 010°42'712.9
2017-Nov-19 18:30N 38°22' W 010°44'612.9
2017-Nov-19 18:00N 38°15' W 010°46'712.9
2017-Nov-19 17:30N 38°09' W 010°48'612.6
2017-Nov-19 17:00N 38°03' W 010°50'612.5
2017-Nov-19 16:30N 37°57' W 010°52'612.3
2017-Nov-19 16:00N 37°51' W 010°53'612.4
2017-Nov-19 15:30N 37°45' W 010°55'612.9
2017-Nov-19 15:00N 37°39' W 010°57'612.7
2017-Nov-19 14:30N 37°32' W 010°59'612.2
2017-Nov-19 14:00N 37°26' W 011°00'1112.4
2017-Nov-19 13:07N 37°16' W 011°04'  
2017-Nov-16 13:09N 28°58' W 013°32'0 0.0
2017-Nov-16 12:51N 28°58' W 013°32'0 0.0
2017-Nov-16 12:24N 28°58' W 013°32'0 0.0
2017-Nov-16 11:24N 28°58' W 013°32'0 0.0
2017-Nov-16 10:54N 28°58' W 013°32'0 0.2
2017-Nov-16 10:19N 28°58' W 013°32'1 1.2
2017-Nov-16 09:05N 28°57' W 013°31'1 1.8
2017-Nov-16 08:44N 28°57' W 013°32'310.2
2017-Nov-16 08:28N 28°55' W 013°34'813.1
2017-Nov-16 07:51N 28°49' W 013°40'4512.8
2017-Nov-16 04:19N 28°47' W 014°31'1112.5
2017-Nov-16 03:25N 28°47' W 014°44'612.3
2017-Nov-16 02:57N 28°47' W 014°51'612.3
2017-Nov-16 02:29N 28°46' W 014°57'612.5
2017-Nov-16 01:59N 28°46' W 015°04'612.7
2017-Nov-16 01:30N 28°46' W 015°11'612.7
2017-Nov-16 01:00N 28°46' W 015°18'612.7
2017-Nov-16 00:30N 28°45' W 015°26'612.6
2017-Nov-16 00:00N 28°45' W 015°33'612.7
2017-Nov-15 23:30N 28°45' W 015°40'712.8
2017-Nov-15 22:59N 28°44' W 015°48'  
2017-Nov-10 23:14N 27°43' W 015°18'313.3
2017-Nov-10 23:00N 27°44' W 015°14'713.0
2017-Nov-10 22:30N 27°46' W 015°07'712.7
2017-Nov-10 21:59N 27°47' W 014°60'612.8
2017-Nov-10 21:31N 27°49' W 014°54'712.3
2017-Nov-10 20:56N 27°52' W 014°46'512.3
2017-Nov-10 20:30N 27°54' W 014°41'612.6
2017-Nov-10 19:59N 27°56' W 014°34'612.3
2017-Nov-10 19:29N 27°59' W 014°27'612.8
2017-Nov-10 19:00N 28°01' W 014°21'1113.1
2017-Nov-10 18:08N 28°06' W 014°09'412.8
2017-Nov-10 17:50N 28°07' W 014°05'412.9
2017-Nov-10 17:30N 28°09' W 014°01'812.8
2017-Nov-10 16:51N 28°14' W 013°53'1113.5
2017-Nov-10 16:05N 28°24' W 013°49'413.2
2017-Nov-10 15:45N 28°28' W 013°47'613.0
2017-Nov-10 15:17N 28°33' W 013°44'513.0
2017-Nov-10 14:54N 28°38' W 013°42'513.1
2017-Nov-10 14:30N 28°42' W 013°39'713.4
2017-Nov-10 13:59N 28°49' W 013°36'613.2
2017-Nov-10 13:30N 28°55' W 013°33'4 4.8
2017-Nov-10 12:43N 28°58' W 013°32'0 0.0
2017-Nov-10 12:30N 28°58' W 013°32'0 0.0
2017-Nov-10 11:27N 28°58' W 013°32'0 0.0
2017-Nov-10 03:39N 28°58' W 013°32'  

Dump ship's entire track history